Enter the Airport ICAO Code

Search by Airport or City

Current Weather

GCFV | Fuerteventura Airport

Fuerteventura, Canary Islands, Spain

Last Update 8 Minutes Ago

Sky with Few Clouds

Temperature of 26 ºC

Moderate to Strong Winds from NorthEast

Temperature

26 ºC

Dew Point Temperature

20 ºC

Relative Humidity

69.7 %

Wind Direction

NorthEast (050º, Without Significant Variations)

Wind Velocity

33 km/h (18 kt)

Gusts

None

Visibility

Greater than 10 Kilometers

Sea Level Pressure

1016 hPa (Hectopascals)

Layers of Clouds

5% to 30% of Sky Covered from 914 mts (3000 ft) Above Ground Level.

METAR GCFV 121430Z 05018KT 9999 FEW030 26/20 Q1016

Weather Forecast

GCFV | Fuerteventura Airport

Fuerteventura, Canary Islands, Spain

Forecast valid for the next 24 Hours

From now on it is expected:

Sky with Few Clouds

Moderate to Strong Winds from NorthEast

In 4 to 6 hours it is expected the begining of:

Moderate Winds from North

Maximum Temperature

27 ºC in 23 Hours

Minimum Temperature

22 ºC in 15 Hours

TAF GCFV 121400Z 1215/1315 05018KT 9999 FEW025 TX27/1314Z TN22/1306Z BECMG 1219/1221 35011KT